createdAt,value
2019-01-12T00:05:56.637Z,24.95
2019-01-12T00:10:58.773Z,22.95
2019-01-12T00:16:00.854Z,22.13
2019-01-12T00:21:03.464Z,23.42
2019-01-12T00:26:05.524Z,23.85
2019-01-12T00:31:07.625Z,23.12
2019-01-12T00:36:09.934Z,24.05
2019-01-12T00:41:13.668Z,24.80
2019-01-12T00:46:15.911Z,24.80
2019-01-12T00:51:17.909Z,23.62
2019-01-12T00:56:20.089Z,24.55
2019-01-12T01:01:22.173Z,24.00
2019-01-12T01:06:24.259Z,23.00
2019-01-12T01:11:26.321Z,25.08
2019-01-12T01:16:28.414Z,23.65
2019-01-12T01:21:30.553Z,27.07
2019-01-12T01:26:32.643Z,23.90
2019-01-12T01:31:35.077Z,24.55
2019-01-12T01:36:37.148Z,24.90
2019-01-12T01:41:39.188Z,22.98
2019-01-12T01:46:41.206Z,26.27
2019-01-12T01:51:43.668Z,23.77
2019-01-12T01:56:45.729Z,23.62
2019-01-12T02:01:47.770Z,22.22
2019-01-12T02:06:49.818Z,22.98
2019-01-12T02:11:51.957Z,21.62
2019-01-12T02:16:54.131Z,25.72
2019-01-12T02:21:56.170Z,23.90
2019-01-12T02:26:58.237Z,23.70
2019-01-12T02:32:00.227Z,23.02
2019-01-12T02:37:02.344Z,22.65
2019-01-12T02:42:04.407Z,22.20
2019-01-12T02:47:06.401Z,21.45
2019-01-12T02:52:08.660Z,22.95
2019-01-12T02:57:10.700Z,23.25
2019-01-12T03:02:12.732Z,22.00
2019-01-12T03:07:14.806Z,22.32
2019-01-12T03:12:16.868Z,22.80
2019-01-12T03:17:18.963Z,22.35
2019-01-12T03:22:21.031Z,23.92
2019-01-12T03:27:23.126Z,22.17
2019-01-12T03:32:25.244Z,22.42
2019-01-12T03:37:27.308Z,21.68
2019-01-12T03:42:29.432Z,22.93
2019-01-12T03:47:31.537Z,23.18
2019-01-12T03:52:33.669Z,23.18
2019-01-12T03:57:35.692Z,21.07
2019-01-12T04:02:37.745Z,22.10
2019-01-12T04:07:40.009Z,21.55
2019-01-12T04:12:42.111Z,22.07
2019-01-12T04:17:44.245Z,21.80
2019-01-12T04:23:05.802Z,22.17
2019-01-12T04:28:08.022Z,22.10
2019-01-12T04:33:10.138Z,20.85
2019-01-12T04:38:12.218Z,21.40
2019-01-12T04:43:14.320Z,20.85
2019-01-12T04:48:16.385Z,22.13
2019-01-12T04:53:18.459Z,20.95
2019-01-12T04:58:20.505Z,21.52
2019-01-12T05:03:22.579Z,22.52
2019-01-12T05:08:24.651Z,20.72
2019-01-12T05:13:26.722Z,22.50
2019-01-12T05:18:28.818Z,20.32
2019-01-12T05:23:30.859Z,20.02
2019-01-12T05:28:32.896Z,20.02
2019-01-12T05:33:35.175Z,18.10
2019-01-12T05:38:37.220Z,18.62
2019-01-12T05:43:39.284Z,17.37
2019-01-12T05:48:41.409Z,16.87
2019-01-12T05:53:43.490Z,17.65
2019-01-12T05:58:45.559Z,18.87
2019-01-12T06:03:47.645Z,18.37
2019-01-12T06:08:49.660Z,18.45
2019-01-12T06:13:51.695Z,17.92
2019-01-12T06:18:54.195Z,15.93
2019-01-12T06:23:56.302Z,15.43
2019-01-12T06:28:58.579Z,16.30
2019-01-12T06:34:00.630Z,15.25
2019-01-12T06:39:24.766Z,15.75
2019-01-12T06:44:26.788Z,16.48
2019-01-12T06:49:28.859Z,16.50
2019-01-12T06:54:30.961Z,15.75
2019-01-12T06:59:34.289Z,16.00
2019-01-12T07:04:37.008Z,15.45
2019-01-12T07:09:39.324Z,15.18
2019-01-12T07:14:41.378Z,15.08
2019-01-12T07:19:43.766Z,15.08
2019-01-12T07:24:45.922Z,13.18
2019-01-12T07:29:48.036Z,12.98
2019-01-12T07:34:50.147Z,11.22
2019-01-12T07:39:52.499Z,11.05
2019-01-12T07:44:54.908Z,9.28
2019-01-12T07:49:57.036Z,8.50
2019-01-12T07:54:59.178Z,7.67
2019-01-12T08:00:02.259Z,6.80
2019-01-12T08:05:06.877Z,6.35
2019-01-12T08:10:12.479Z,5.78
2019-01-12T08:15:36.182Z,6.55
2019-01-12T08:20:38.317Z,7.08
2019-01-12T08:25:40.737Z,6.22
2019-01-12T08:30:42.781Z,7.35
2019-01-12T08:35:44.856Z,7.45
2019-01-12T08:40:46.949Z,7.45
2019-01-12T08:45:49.390Z,7.87
2019-01-12T08:50:51.837Z,8.73
2019-01-12T08:55:53.924Z,9.98
2019-01-12T09:00:56.050Z,8.78
2019-01-12T09:05:58.170Z,8.58
2019-01-12T09:11:00.557Z,8.80
2019-01-12T09:16:02.696Z,8.78
2019-01-12T09:21:05.098Z,6.53
2019-01-12T09:26:07.122Z,6.15
2019-01-12T09:31:09.587Z,6.92
2019-01-12T09:36:11.809Z,6.12
2019-01-12T09:41:16.570Z,4.90
2019-01-12T09:46:19.923Z,5.20
2019-01-12T09:51:22.248Z,5.72
2019-01-12T09:56:24.431Z,6.33
2019-01-12T10:01:26.905Z,5.42
2019-01-12T10:06:29.273Z,5.40
2019-01-12T10:11:33.613Z,5.85
2019-01-12T10:16:35.647Z,7.70
2019-01-12T10:21:37.987Z,5.78
2019-01-12T10:26:40.034Z,5.45
2019-01-12T10:31:42.180Z,5.65
2019-01-12T10:36:44.282Z,5.30
2019-01-12T10:41:46.452Z,5.22
2019-01-12T10:46:48.625Z,5.97
2019-01-12T10:51:50.837Z,6.33
2019-01-12T10:56:52.883Z,6.62
2019-01-12T11:01:54.947Z,5.53
2019-01-12T11:06:57.093Z,6.83
2019-01-12T11:11:59.137Z,7.40
2019-01-12T11:17:01.156Z,7.70
2019-01-12T11:22:03.441Z,7.92
2019-01-12T11:27:12.066Z,8.45
2019-01-12T11:32:09.584Z,8.53
2019-01-12T11:37:11.692Z,9.25
2019-01-12T11:42:13.807Z,9.80
2019-01-12T11:47:16.172Z,8.93
2019-01-12T11:52:18.163Z,9.08
2019-01-12T11:57:20.218Z,9.18
2019-01-12T12:02:22.608Z,10.20
2019-01-12T12:07:24.944Z,9.30
2019-01-12T12:12:27.153Z,9.63
2019-01-12T12:17:29.511Z,10.15
2019-01-12T12:22:31.578Z,11.50
2019-01-12T12:27:34.199Z,12.25
2019-01-12T12:32:36.271Z,11.95
2019-01-12T12:37:38.377Z,11.90
2019-01-12T12:42:40.496Z,12.10
2019-01-12T12:47:42.457Z,12.45
2019-01-12T12:52:44.726Z,12.07
2019-01-12T12:57:46.795Z,12.37
2019-01-12T13:02:48.908Z,13.08
2019-01-12T13:07:55.172Z,13.78
2019-01-12T13:12:57.714Z,14.20
2019-01-12T13:18:00.495Z,13.08
2019-01-12T13:23:02.721Z,13.55
2019-01-12T13:28:05.116Z,12.70
2019-01-12T13:33:49.524Z,12.43
2019-01-12T13:38:51.709Z,12.75
2019-01-12T13:43:53.916Z,12.30
2019-01-12T13:49:18.805Z,12.07
2019-01-12T14:00:52.255Z,12.85
2019-01-12T14:07:01.932Z,12.28
2019-01-12T14:17:48.750Z,13.08
2019-01-12T14:22:51.475Z,12.35
2019-01-12T14:27:55.182Z,12.33
2019-01-12T14:38:34.672Z,12.07
2019-01-12T14:49:41.263Z,13.93
2019-01-12T14:54:47.800Z,14.60
2019-01-12T14:59:51.554Z,14.68
2019-01-12T15:04:53.663Z,13.75
2019-01-12T15:10:17.294Z,13.75
2019-01-12T15:15:19.357Z,13.50
2019-01-12T15:20:23.535Z,13.25
2019-01-12T15:25:25.796Z,14.18
2019-01-12T15:30:48.193Z,14.68
2019-01-12T15:35:51.372Z,15.95
2019-01-12T15:41:47.197Z,15.28
2019-01-12T15:46:24.028Z,15.38
2019-01-12T15:52:10.232Z,16.15
2019-01-12T16:02:11.874Z,15.13
2019-01-12T16:12:30.350Z,15.38
2019-01-12T16:17:32.514Z,14.63
2019-01-12T16:22:34.647Z,14.73
2019-01-12T16:27:36.657Z,15.72
2019-01-12T16:32:38.683Z,15.15
2019-01-12T16:43:10.631Z,15.58
2019-01-12T16:48:12.660Z,15.32
2019-01-12T16:53:14.714Z,14.35
2019-01-12T16:58:30.391Z,15.40
2019-01-12T17:03:28.078Z,14.78
2019-01-12T17:08:30.152Z,15.58
2019-01-12T17:13:32.347Z,14.47
2019-01-12T17:18:34.717Z,15.10
2019-01-12T17:23:36.911Z,13.55
2019-01-12T17:28:38.964Z,13.60
2019-01-12T17:33:41.127Z,14.10
2019-01-12T17:38:43.086Z,16.23
2019-01-12T17:43:45.123Z,24.30
2019-01-12T17:48:47.140Z,13.85
2019-01-12T17:53:49.929Z,11.18
2019-01-12T17:58:52.082Z,13.18
2019-01-12T18:03:54.136Z,13.18
2019-01-12T18:08:56.221Z,12.75
2019-01-12T18:13:58.364Z,12.50
2019-01-12T18:19:00.407Z,10.68
2019-01-12T18:24:02.732Z,10.35
2019-01-12T18:29:05.166Z,10.50
2019-01-12T18:34:07.231Z,9.63
2019-01-12T18:39:10.094Z,9.88
2019-01-12T18:44:12.699Z,9.98
2019-01-12T18:49:14.884Z,9.70
2019-01-12T18:54:17.099Z,9.68
2019-01-12T18:59:19.178Z,8.53
2019-01-12T19:04:21.258Z,8.40
2019-01-12T19:09:42.800Z,7.72
2019-01-12T19:14:45.180Z,8.00
2019-01-12T19:19:47.465Z,7.10
2019-01-12T19:24:49.499Z,8.33
2019-01-12T19:29:51.549Z,8.08
2019-01-12T19:34:53.584Z,9.28
2019-01-12T19:39:55.612Z,8.70
2019-01-12T19:44:57.791Z,9.15
2019-01-12T19:49:59.945Z,9.05
2019-01-12T19:55:02.014Z,8.25
2019-01-12T20:00:25.886Z,8.50
2019-01-12T20:05:27.934Z,9.55
2019-01-12T20:10:29.989Z,8.23
2019-01-12T20:15:32.054Z,9.33
2019-01-12T20:20:34.102Z,9.13
2019-01-12T20:25:36.157Z,9.30
2019-01-12T20:31:17.127Z,9.73
2019-01-12T20:36:58.318Z,9.15
2019-01-12T20:42:39.329Z,7.87
2019-01-12T20:48:20.488Z,9.18
2019-01-12T20:53:49.567Z,7.92
2019-01-12T20:59:30.500Z,8.35
2019-01-12T21:05:11.708Z,7.40
2019-01-12T21:10:46.754Z,5.75
2019-01-12T21:15:54.699Z,6.70
2019-01-12T21:20:57.044Z,5.85
2019-01-12T21:25:59.158Z,6.30
2019-01-12T21:31:01.243Z,5.85
2019-01-12T21:36:03.362Z,6.15
2019-01-12T21:41:05.377Z,5.92
2019-01-12T21:46:07.502Z,5.53
2019-01-12T21:51:09.597Z,5.75
2019-01-12T21:56:11.679Z,6.80
2019-01-12T22:01:13.720Z,8.20
2019-01-12T22:06:15.777Z,6.60
2019-01-12T22:11:17.889Z,7.10
2019-01-12T22:16:20.132Z,6.20
2019-01-12T22:21:22.159Z,6.55
2019-01-12T22:26:24.779Z,4.30
2019-01-12T22:31:26.941Z,3.10
2019-01-12T22:36:29.112Z,2.35
2019-01-12T22:41:31.497Z,3.50
2019-01-12T22:46:33.627Z,4.55
2019-01-12T22:51:35.705Z,4.67
2019-01-12T22:56:38.028Z,3.98
2019-01-12T23:02:00.680Z,3.65
2019-01-12T23:07:24.591Z,3.35
2019-01-12T23:12:26.641Z,3.92
2019-01-12T23:17:28.660Z,3.42
2019-01-12T23:22:30.772Z,3.72
2019-01-12T23:27:32.864Z,3.87
2019-01-12T23:32:34.960Z,4.22
2019-01-12T23:37:37.155Z,4.05
2019-01-12T23:42:39.274Z,4.55
2019-01-12T23:47:41.577Z,3.77
2019-01-12T23:52:43.785Z,3.98
2019-01-12T23:57:45.843Z,5.45
